createdAt,value
2017-11-10T00:00:40.143Z,58.85
2017-11-10T00:03:07.586Z,69.78
2017-11-10T00:05:35.021Z,59.53
2017-11-10T00:08:02.463Z,67.35
2017-11-10T00:10:29.986Z,69.10
2017-11-10T00:12:57.414Z,71.28
2017-11-10T00:15:24.843Z,66.43
2017-11-10T00:17:52.284Z,63.78
2017-11-10T00:20:19.905Z,62.08
2017-11-10T00:22:51.986Z,69.20
2017-11-10T00:25:20.175Z,63.03
2017-11-10T00:27:47.616Z,71.32
2017-11-10T00:30:17.748Z,69.00
2017-11-10T00:32:45.820Z,62.62
2017-11-10T00:35:14.501Z,67.82
2017-11-10T00:37:41.957Z,69.25
2017-11-10T00:40:09.677Z,67.15
2017-11-10T00:42:37.131Z,63.17
2017-11-10T00:45:04.570Z,62.20
2017-11-10T00:47:34.086Z,73.47
2017-11-10T00:50:05.995Z,72.82
2017-11-10T00:52:37.400Z,77.35
2017-11-10T00:55:05.737Z,71.87
2017-11-10T00:57:33.165Z,68.45
2017-11-10T01:00:00.613Z,92.07
2017-11-10T01:02:28.042Z,88.07
2017-11-10T01:04:55.490Z,66.72
2017-11-10T01:07:22.928Z,72.05
2017-11-10T01:09:51.077Z,72.95
2017-11-10T01:12:18.538Z,60.38
2017-11-10T01:14:45.978Z,72.18
2017-11-10T01:17:13.409Z,66.97
2017-11-10T01:22:17.066Z,75.10
2017-11-10T01:24:45.447Z,86.30
2017-11-10T01:27:13.473Z,75.90
2017-11-10T01:29:40.926Z,68.18
2017-11-10T01:32:08.382Z,71.72
2017-11-10T01:34:36.267Z,82.60
2017-11-10T01:37:03.702Z,75.70
2017-11-10T01:39:31.166Z,69.95
2017-11-10T01:42:01.877Z,76.20
2017-11-10T01:44:34.099Z,72.95
2017-11-10T01:47:19.455Z,76.18
2017-11-10T01:49:52.482Z,72.07
2017-11-10T01:52:20.757Z,67.45
2017-11-10T01:54:50.550Z,76.32
2017-11-10T01:57:17.990Z,74.82
2017-11-10T01:59:45.440Z,73.93
2017-11-10T02:02:12.869Z,81.35
2017-11-10T02:04:40.306Z,82.05
2017-11-10T02:07:07.769Z,73.28
2017-11-10T02:09:35.246Z,68.55
2017-11-10T02:12:02.678Z,70.82
2017-11-10T02:14:30.126Z,71.22
2017-11-10T02:16:57.563Z,69.93
2017-11-10T02:19:24.990Z,73.05
2017-11-10T02:21:52.437Z,80.68
2017-11-10T02:24:19.879Z,79.18
2017-11-10T02:26:47.305Z,70.47
2017-11-10T02:29:14.750Z,72.62
2017-11-10T02:31:42.193Z,72.32
2017-11-10T02:34:09.659Z,65.47
2017-11-10T02:36:37.104Z,69.62
2017-11-10T02:39:04.534Z,72.65
2017-11-10T02:41:32.394Z,64.97
2017-11-10T02:43:59.824Z,65.72
2017-11-10T02:46:27.265Z,76.00
2017-11-10T02:48:54.707Z,81.47
2017-11-10T02:51:22.142Z,69.55
2017-11-10T02:53:49.589Z,79.37
2017-11-10T02:56:17.022Z,63.42
2017-11-10T02:58:44.459Z,64.47
2017-11-10T03:01:11.906Z,66.82
2017-11-10T03:03:39.367Z,66.65
2017-11-10T03:06:06.803Z,67.65
2017-11-10T03:08:34.310Z,70.25
2017-11-10T03:11:01.756Z,62.05
2017-11-10T03:13:29.189Z,60.58
2017-11-10T03:15:56.641Z,51.47
2017-11-10T03:18:24.080Z,58.60
2017-11-10T03:20:51.517Z,50.55
2017-11-10T03:23:18.984Z,54.00
2017-11-10T03:25:46.414Z,47.38
2017-11-10T03:28:13.856Z,50.67
2017-11-10T03:30:41.311Z,60.58
2017-11-10T03:33:08.737Z,58.33
2017-11-10T03:35:36.174Z,59.15
2017-11-10T03:38:03.627Z,56.65
2017-11-10T03:40:31.058Z,56.55
2017-11-10T03:42:58.486Z,56.08
2017-11-10T03:45:25.933Z,58.03
2017-11-10T03:47:53.371Z,58.58
2017-11-10T03:50:20.805Z,66.20
2017-11-10T03:52:48.253Z,56.88
2017-11-10T03:55:15.693Z,54.60
2017-11-10T03:57:43.128Z,49.10
2017-11-10T04:00:10.575Z,51.63
2017-11-10T04:02:38.009Z,59.13
2017-11-10T04:05:05.454Z,56.92
2017-11-10T04:07:32.898Z,68.57
2017-11-10T04:10:00.330Z,50.47
2017-11-10T04:12:27.762Z,48.67
2017-11-10T04:14:55.210Z,47.30
2017-11-10T04:17:22.637Z,48.10
2017-11-10T04:19:50.069Z,43.38
2017-11-10T04:22:17.527Z,50.88
2017-11-10T04:24:44.955Z,39.22
2017-11-10T04:27:12.382Z,42.00
2017-11-10T04:29:39.849Z,43.83
2017-11-10T04:32:07.277Z,45.12
2017-11-10T04:34:34.709Z,47.20
2017-11-10T04:37:02.163Z,45.08
2017-11-10T04:39:29.605Z,42.58
2017-11-10T04:41:57.033Z,42.22
2017-11-10T04:44:24.478Z,43.22
2017-11-10T04:46:51.910Z,45.42
2017-11-10T04:49:19.347Z,44.88
2017-11-10T04:51:46.807Z,55.12
2017-11-10T04:54:14.241Z,57.40
2017-11-10T04:56:41.684Z,46.58
2017-11-10T04:59:09.137Z,48.28
2017-11-10T05:01:36.588Z,47.88
2017-11-10T05:04:04.010Z,50.22
2017-11-10T05:06:31.462Z,51.75
2017-11-10T05:08:58.906Z,44.72
2017-11-10T05:11:26.334Z,54.05
2017-11-10T05:13:53.787Z,43.55
2017-11-10T05:16:21.218Z,42.62
2017-11-10T05:18:48.649Z,43.37
2017-11-10T05:21:16.099Z,48.28
2017-11-10T05:23:43.537Z,50.97
2017-11-10T05:26:10.978Z,42.97
2017-11-10T05:28:40.161Z,48.97
2017-11-10T05:31:07.624Z,51.78
2017-11-10T05:33:35.062Z,53.65
2017-11-10T05:36:02.506Z,51.80
2017-11-10T05:38:29.929Z,52.80
2017-11-10T05:40:57.366Z,42.22
2017-11-10T05:43:24.821Z,45.92
2017-11-10T05:45:52.246Z,47.67
2017-11-10T05:48:19.675Z,55.97
2017-11-10T05:50:47.126Z,48.30
2017-11-10T05:53:14.558Z,47.65
2017-11-10T05:55:41.992Z,45.30
2017-11-10T05:58:09.437Z,46.50
2017-11-10T06:00:36.871Z,44.38
2017-11-10T06:03:04.316Z,46.37
2017-11-10T06:05:31.794Z,43.70
2017-11-10T06:07:59.233Z,43.92
2017-11-10T06:10:26.630Z,44.55
2017-11-10T06:12:54.114Z,41.67
2017-11-10T06:15:21.555Z,45.03
2017-11-10T06:17:48.984Z,40.20
2017-11-10T06:20:16.438Z,45.05
2017-11-10T06:22:43.865Z,45.83
2017-11-10T06:27:46.797Z,45.97
2017-11-10T06:30:14.266Z,49.33
2017-11-10T06:32:42.738Z,51.33
2017-11-10T06:35:10.218Z,45.33
2017-11-10T06:37:37.670Z,46.17
2017-11-10T06:40:05.102Z,46.00
2017-11-10T06:42:32.537Z,42.45
2017-11-10T06:44:59.981Z,51.47
2017-11-10T06:47:27.418Z,39.97
2017-11-10T06:49:54.856Z,45.10
2017-11-10T06:52:22.417Z,40.60
2017-11-10T06:54:49.853Z,45.80
2017-11-10T06:57:17.281Z,41.13
2017-11-10T06:59:44.735Z,35.67
2017-11-10T07:02:12.169Z,42.97
2017-11-10T07:04:39.601Z,42.40
2017-11-10T07:07:07.060Z,45.75
2017-11-10T07:09:34.493Z,43.97
2017-11-10T07:12:01.930Z,38.45
2017-11-10T07:14:29.381Z,39.85
2017-11-10T07:16:56.879Z,47.37
2017-11-10T07:19:24.313Z,42.45
2017-11-10T07:21:51.752Z,43.15
2017-11-10T07:24:19.205Z,39.30
2017-11-10T07:26:46.642Z,43.38
2017-11-10T07:29:14.095Z,45.97
2017-11-10T07:31:41.530Z,44.60
2017-11-10T07:34:08.966Z,42.03
2017-11-10T07:36:36.452Z,44.95
2017-11-10T07:39:03.882Z,40.25
2017-11-10T07:41:31.313Z,53.07
2017-11-10T07:43:58.748Z,42.97
2017-11-10T07:46:26.193Z,40.90
2017-11-10T07:48:53.613Z,39.27
2017-11-10T07:51:21.061Z,39.55
2017-11-10T07:53:48.477Z,40.77
2017-11-10T07:56:16.731Z,46.57
2017-11-10T07:58:44.170Z,40.20
2017-11-10T08:01:11.590Z,43.13
2017-11-10T08:03:39.023Z,53.80
2017-11-10T08:06:06.471Z,41.65
2017-11-10T08:08:33.905Z,46.72
2017-11-10T08:11:01.322Z,48.40
2017-11-10T08:13:28.781Z,41.80
2017-11-10T08:15:56.236Z,47.20
2017-11-10T08:18:23.645Z,37.65
2017-11-10T08:20:51.100Z,40.92
2017-11-10T08:23:18.534Z,50.08
2017-11-10T08:25:45.954Z,38.03
2017-11-10T08:28:13.406Z,43.13
2017-11-10T08:30:40.838Z,46.53
2017-11-10T08:33:08.265Z,36.40
2017-11-10T08:35:35.709Z,43.33
2017-11-10T08:38:03.159Z,44.60
2017-11-10T08:40:30.594Z,46.30
2017-11-10T08:42:58.052Z,44.95
2017-11-10T08:45:25.497Z,53.85
2017-11-10T08:47:52.930Z,39.97
2017-11-10T08:50:20.369Z,44.28
2017-11-10T08:52:47.802Z,45.00
2017-11-10T08:55:15.244Z,44.33
2017-11-10T08:57:42.690Z,59.17
2017-11-10T09:00:10.137Z,48.13
2017-11-10T09:02:37.575Z,51.83
2017-11-10T09:05:05.015Z,47.33
2017-11-10T09:07:32.454Z,50.08
2017-11-10T09:09:59.996Z,47.60
2017-11-10T09:12:27.442Z,48.87
2017-11-10T09:14:54.870Z,59.13
2017-11-10T09:17:22.306Z,49.03
2017-11-10T09:19:49.797Z,45.10
2017-11-10T09:22:17.234Z,55.67
2017-11-10T09:24:44.663Z,42.15
2017-11-10T09:27:12.115Z,54.78
2017-11-10T09:29:40.261Z,43.28
2017-11-10T09:45:43.410Z,35.10
2017-11-10T09:48:16.431Z,36.90
2017-11-10T09:50:49.571Z,28.60
2017-11-10T10:07:05.730Z,34.65
2017-11-10T10:23:10.997Z,28.65
2017-11-10T10:25:38.542Z,28.10
2017-11-10T10:28:06.005Z,24.13
2017-11-10T10:30:33.501Z,25.35
2017-11-10T10:33:00.938Z,24.20
2017-11-10T10:35:28.498Z,24.20
2017-11-10T10:37:56.057Z,28.30
2017-11-10T10:40:23.579Z,28.60
2017-11-10T10:42:51.205Z,28.90
2017-11-10T10:45:18.660Z,30.63
2017-11-10T10:47:46.125Z,26.80
2017-11-10T10:50:13.712Z,26.83
2017-11-10T10:52:41.235Z,33.53
2017-11-10T10:55:10.410Z,29.05
2017-11-10T10:57:37.950Z,28.10
2017-11-10T11:00:06.204Z,39.15
2017-11-10T11:02:33.754Z,35.97
2017-11-10T11:05:01.149Z,32.50
2017-11-10T11:07:28.642Z,41.37
2017-11-10T11:09:56.138Z,26.05
2017-11-10T11:12:23.632Z,31.23
2017-11-10T11:14:51.077Z,33.15
2017-11-10T11:17:18.538Z,43.60
2017-11-10T11:19:45.997Z,34.28
2017-11-10T11:22:13.430Z,42.25
2017-11-10T11:24:40.885Z,35.35
2017-11-10T11:27:11.493Z,38.17
2017-11-10T11:29:38.928Z,37.67
2017-11-10T11:32:06.381Z,34.75
2017-11-10T11:34:33.910Z,32.47
2017-11-10T11:37:02.278Z,31.63
2017-11-10T11:39:31.305Z,35.10
2017-11-10T11:41:58.793Z,38.38
2017-11-10T11:44:41.941Z,32.03
2017-11-10T11:47:20.569Z,34.50
2017-11-10T11:52:29.766Z,30.30
2017-11-10T11:54:58.144Z,31.33
2017-11-10T11:57:25.594Z,31.30
2017-11-10T12:13:26.840Z,32.28
2017-11-10T12:15:54.342Z,31.40
2017-11-10T12:18:22.345Z,31.10
2017-11-10T12:20:50.360Z,31.67
2017-11-10T12:23:17.822Z,30.42
2017-11-10T12:25:45.298Z,33.50
2017-11-10T12:28:12.781Z,30.55
2017-11-10T12:30:40.276Z,30.52
2017-11-10T12:33:08.108Z,32.42
2017-11-10T12:35:35.629Z,34.45
2017-11-10T12:38:03.110Z,37.03
2017-11-10T12:40:30.545Z,29.40
2017-11-10T12:42:57.998Z,30.75
2017-11-10T12:45:26.097Z,36.10
2017-11-10T12:47:53.867Z,46.33
2017-11-10T12:50:24.507Z,30.48
2017-11-10T12:52:57.146Z,33.45
2017-11-10T12:55:24.601Z,29.05
2017-11-10T13:00:25.887Z,35.00
2017-11-10T13:02:56.122Z,26.67
2017-11-10T13:05:24.250Z,27.60
2017-11-10T13:07:51.694Z,30.42
2017-11-10T13:10:19.134Z,31.80
2017-11-10T13:12:46.578Z,30.20
2017-11-10T13:15:14.030Z,37.58
2017-11-10T13:17:41.461Z,36.88
2017-11-10T13:20:08.904Z,32.78
2017-11-10T13:22:36.354Z,36.22
2017-11-10T13:25:03.798Z,33.90
2017-11-10T13:27:31.250Z,35.72
2017-11-10T13:29:58.707Z,35.38
2017-11-10T13:32:26.141Z,33.33
2017-11-10T13:34:53.579Z,30.02
2017-11-10T13:37:21.033Z,32.65
2017-11-10T13:39:48.465Z,41.53
2017-11-10T13:42:15.894Z,35.72
2017-11-10T13:44:43.357Z,30.60
2017-11-10T13:47:10.791Z,34.55
2017-11-10T13:49:38.222Z,37.53
2017-11-10T13:52:05.670Z,34.28
2017-11-10T13:54:33.102Z,29.05
2017-11-10T13:57:02.299Z,25.73
2017-11-10T13:59:29.750Z,22.98
2017-11-10T14:01:57.181Z,31.33
2017-11-10T14:04:28.175Z,40.05
2017-11-10T14:06:55.621Z,27.40
2017-11-10T14:09:23.073Z,25.85
2017-11-10T14:11:50.510Z,21.90
2017-11-10T14:14:17.946Z,23.75
2017-11-10T14:16:54.657Z,21.92
2017-11-10T14:19:22.178Z,20.60
2017-11-10T14:21:49.619Z,20.30
2017-11-10T14:24:17.075Z,25.15
2017-11-10T14:26:44.501Z,20.52
2017-11-10T14:29:12.142Z,22.42
2017-11-10T14:31:39.602Z,26.05
2017-11-10T14:34:07.049Z,23.90
2017-11-10T14:36:34.486Z,19.20
2017-11-10T14:39:01.942Z,20.92
2017-11-10T14:41:29.375Z,19.45
2017-11-10T14:43:56.810Z,19.90
2017-11-10T14:46:24.270Z,15.65
2017-11-10T14:48:51.718Z,31.15
2017-11-10T14:51:19.166Z,20.85
2017-11-10T14:53:46.696Z,19.42
2017-11-10T14:56:14.138Z,18.40
2017-11-10T14:58:41.570Z,15.45
2017-11-10T15:01:09.056Z,16.40
2017-11-10T15:03:36.493Z,21.48
2017-11-10T15:06:04.036Z,14.25
2017-11-10T15:08:31.934Z,18.55
2017-11-10T15:13:33.211Z,23.98
2017-11-10T15:16:00.661Z,17.80
2017-11-10T15:18:28.157Z,14.87
2017-11-10T15:20:55.618Z,14.13
2017-11-10T15:23:24.231Z,10.98
2017-11-10T15:25:51.734Z,13.52
2017-11-10T15:28:19.269Z,14.87
2017-11-10T15:30:46.707Z,13.95
2017-11-10T15:33:14.142Z,15.02
2017-11-10T15:35:41.597Z,13.02
2017-11-10T15:38:09.018Z,10.63
2017-11-10T15:40:36.455Z,15.80
2017-11-10T15:43:03.922Z,11.93
2017-11-10T15:45:31.345Z,14.90
2017-11-10T15:47:58.788Z,14.07
2017-11-10T15:50:26.280Z,17.48
2017-11-10T15:52:53.702Z,15.07
2017-11-10T15:55:21.134Z,15.15
2017-11-10T15:57:48.588Z,16.50
2017-11-10T16:00:16.023Z,21.10
2017-11-10T16:02:43.462Z,18.05
2017-11-10T16:05:10.905Z,22.40
2017-11-10T16:07:38.349Z,25.90
2017-11-10T16:10:05.781Z,20.20
2017-11-10T16:12:33.234Z,18.98
2017-11-10T16:15:00.665Z,28.25
2017-11-10T16:17:28.097Z,26.65
2017-11-10T16:19:55.546Z,44.28
2017-11-10T16:22:22.975Z,13.60
2017-11-10T16:24:50.425Z,16.25
2017-11-10T16:27:17.878Z,17.80
2017-11-10T16:29:45.301Z,11.70
2017-11-10T16:32:12.736Z,28.10
2017-11-10T16:34:40.185Z,10.90
2017-11-10T16:37:07.623Z,12.20
2017-11-10T16:39:35.049Z,20.27
2017-11-10T16:42:02.506Z,8.95
2017-11-10T16:44:29.951Z,12.60
2017-11-10T16:46:57.390Z,8.57
2017-11-10T16:49:24.825Z,14.87
2017-11-10T16:51:52.262Z,17.17
2017-11-10T16:54:19.701Z,7.00
2017-11-10T16:56:47.130Z,6.50
2017-11-10T16:59:14.558Z,9.68
2017-11-10T17:01:42.007Z,11.45
2017-11-10T17:04:09.429Z,6.82
2017-11-10T17:06:36.846Z,6.80
2017-11-10T17:09:04.298Z,8.32
2017-11-10T17:11:31.730Z,6.82
2017-11-10T17:13:59.201Z,5.78
2017-11-10T17:16:26.654Z,5.93
2017-11-10T17:18:54.074Z,5.78
2017-11-10T17:21:21.502Z,5.60
2017-11-10T17:23:48.947Z,5.12
2017-11-10T17:26:16.376Z,4.95
2017-11-10T17:28:43.799Z,5.37
2017-11-10T17:31:11.242Z,5.15
2017-11-10T17:33:38.673Z,5.20
2017-11-10T17:36:06.102Z,6.40
2017-11-10T17:38:33.545Z,5.65
2017-11-10T17:41:00.985Z,5.43
2017-11-10T17:43:28.414Z,5.05
2017-11-10T17:45:55.885Z,4.80
2017-11-10T17:48:23.351Z,4.70
2017-11-10T17:50:50.772Z,5.40
2017-11-10T17:53:18.237Z,5.43
2017-11-10T17:55:45.697Z,4.37
2017-11-10T17:58:13.111Z,5.27
2017-11-10T18:00:40.537Z,4.90
2017-11-10T18:03:07.968Z,4.80
2017-11-10T18:05:35.385Z,4.55
2017-11-10T18:08:02.835Z,4.93
2017-11-10T18:10:30.268Z,5.07
2017-11-10T18:12:57.739Z,6.97
2017-11-10T18:15:25.182Z,4.60
2017-11-10T18:17:52.634Z,4.37
2017-11-10T18:20:20.076Z,5.00
2017-11-10T18:22:47.553Z,4.87
2017-11-10T18:25:14.992Z,4.68
2017-11-10T18:27:42.436Z,5.25
2017-11-10T18:30:09.865Z,4.60
2017-11-10T18:32:37.306Z,4.85
2017-11-10T18:35:04.725Z,4.80
2017-11-10T18:37:32.139Z,4.40
2017-11-10T18:39:59.578Z,6.20
2017-11-10T18:42:27.002Z,4.45
2017-11-10T18:44:54.414Z,4.77
2017-11-10T18:47:21.861Z,4.90
2017-11-10T18:49:49.274Z,6.00
2017-11-10T18:52:16.691Z,7.23
2017-11-10T18:54:45.078Z,5.05
2017-11-10T18:57:12.502Z,4.85
2017-11-10T18:59:39.926Z,7.37
2017-11-10T19:02:07.389Z,15.40
2017-11-10T19:04:34.820Z,9.50
2017-11-10T19:07:02.242Z,4.78
2017-11-10T19:09:29.680Z,4.70
2017-11-10T19:11:57.122Z,6.97
2017-11-10T19:14:24.542Z,4.40
2017-11-10T19:16:51.982Z,4.20
2017-11-10T19:19:19.406Z,6.12
2017-11-10T19:21:46.830Z,5.12
2017-11-10T19:24:14.278Z,5.00
2017-11-10T19:26:41.701Z,5.30
2017-11-10T19:29:09.155Z,11.65
2017-11-10T19:31:36.767Z,6.60
2017-11-10T19:34:04.495Z,5.00
2017-11-10T19:36:32.984Z,5.30
2017-11-10T19:39:00.975Z,5.22
2017-11-10T19:41:29.170Z,4.68
2017-11-10T19:43:56.997Z,4.57
2017-11-10T19:46:24.912Z,5.23
2017-11-10T19:48:53.017Z,4.07
2017-11-10T19:51:20.991Z,4.40
2017-11-10T19:53:49.348Z,6.75
2017-11-10T19:56:17.679Z,7.75
2017-11-10T19:58:46.643Z,4.50
2017-11-10T20:01:15.229Z,3.67
2017-11-10T20:03:49.230Z,3.70
2017-11-10T20:06:17.797Z,4.45
2017-11-10T20:08:47.256Z,4.30
2017-11-10T20:11:16.002Z,4.62
2017-11-10T20:13:44.510Z,4.65
2017-11-10T20:16:13.175Z,5.10
2017-11-10T20:18:41.795Z,7.87
2017-11-10T20:21:10.225Z,4.60
2017-11-10T20:26:17.045Z,4.35
2017-11-10T20:28:45.478Z,4.53
2017-11-10T20:31:14.152Z,4.82
2017-11-10T20:33:42.556Z,5.35
2017-11-10T20:36:10.904Z,4.80
2017-11-10T20:38:39.411Z,4.40
2017-11-10T20:41:07.883Z,4.62
2017-11-10T20:43:36.273Z,4.68
2017-11-10T20:46:04.969Z,4.93
2017-11-10T20:48:33.446Z,5.10
2017-11-10T20:51:01.850Z,5.55
2017-11-10T20:53:30.336Z,5.60
2017-11-10T20:55:58.755Z,5.37
2017-11-10T20:58:27.728Z,7.45
2017-11-10T21:00:56.223Z,5.20
2017-11-10T21:03:24.610Z,5.60
2017-11-10T21:05:52.995Z,7.32
2017-11-10T21:08:21.595Z,5.90
2017-11-10T21:10:49.976Z,4.70
2017-11-10T21:13:18.377Z,5.40
2017-11-10T21:15:46.881Z,6.00
2017-11-10T21:18:15.271Z,5.20
2017-11-10T21:20:43.684Z,5.37
2017-11-10T21:23:12.445Z,5.40
2017-11-10T21:25:41.139Z,7.50
2017-11-10T21:28:09.952Z,5.80
2017-11-10T21:30:38.649Z,5.20
2017-11-10T21:33:07.036Z,5.40
2017-11-10T21:35:35.420Z,5.30
2017-11-10T21:38:04.840Z,10.30
2017-11-10T21:40:33.195Z,5.50
2017-11-10T21:43:01.669Z,10.70
2017-11-10T21:45:30.164Z,5.70
2017-11-10T21:47:58.498Z,5.10
2017-11-10T21:50:26.962Z,4.93
2017-11-10T21:52:55.507Z,7.80
2017-11-10T21:55:23.800Z,5.30
2017-11-10T21:57:51.729Z,5.40
2017-11-10T22:00:19.760Z,5.68
2017-11-10T22:02:47.865Z,5.30
2017-11-10T22:05:15.546Z,5.23
2017-11-10T22:07:43.013Z,9.70
2017-11-10T22:10:10.851Z,6.00
2017-11-10T22:12:38.456Z,6.50
2017-11-10T22:15:05.940Z,6.20
2017-11-10T22:17:33.364Z,6.00
2017-11-10T22:20:00.825Z,6.10
2017-11-10T22:22:28.315Z,5.60
2017-11-10T22:24:55.725Z,6.07
2017-11-10T22:27:23.161Z,7.95
2017-11-10T22:29:50.614Z,13.32
2017-11-10T22:32:18.025Z,8.07
2017-11-10T22:34:45.437Z,6.53
2017-11-10T22:37:12.882Z,7.30
2017-11-10T22:39:40.302Z,7.87
2017-11-10T22:42:07.721Z,13.30
2017-11-10T22:44:35.179Z,11.98
2017-11-10T22:47:02.611Z,17.17
2017-11-10T22:49:30.046Z,10.73
2017-11-10T22:51:57.483Z,8.93
2017-11-10T22:54:24.929Z,10.93
2017-11-10T22:56:52.383Z,14.37
2017-11-10T22:59:19.818Z,15.60
2017-11-10T23:01:47.261Z,14.90
2017-11-10T23:04:14.709Z,22.30
2017-11-10T23:06:42.135Z,12.07
2017-11-10T23:09:09.578Z,23.33
2017-11-10T23:11:37.030Z,18.62
2017-11-10T23:14:04.453Z,17.37
2017-11-10T23:16:31.915Z,18.55
2017-11-10T23:18:59.657Z,26.58
2017-11-10T23:21:27.106Z,16.33
2017-11-10T23:23:54.538Z,20.88
2017-11-10T23:26:21.983Z,19.27
2017-11-10T23:28:49.410Z,26.33
2017-11-10T23:31:16.854Z,20.27
2017-11-10T23:33:44.565Z,19.13
2017-11-10T23:36:12.019Z,19.52
2017-11-10T23:38:39.447Z,33.78
2017-11-10T23:41:06.870Z,19.80
2017-11-10T23:43:34.315Z,28.70
2017-11-10T23:46:01.742Z,24.48
2017-11-10T23:48:29.182Z,24.70
2017-11-10T23:50:56.632Z,20.27
2017-11-10T23:53:24.070Z,21.60
2017-11-10T23:55:51.498Z,23.33
2017-11-10T23:58:18.930Z,26.33
